createdAt,value
2018-02-13T00:00:51.565Z,2.87
2018-02-13T00:03:22.655Z,2.80
2018-02-13T00:05:53.777Z,2.70
2018-02-13T00:08:24.806Z,2.60
2018-02-13T00:10:55.899Z,2.49
2018-02-13T00:13:26.983Z,2.39
2018-02-13T00:15:58.043Z,2.29
2018-02-13T00:18:29.102Z,2.19
2018-02-13T00:21:00.178Z,2.10
2018-02-13T00:23:31.239Z,2.04
2018-02-13T00:26:02.271Z,1.98
2018-02-13T00:28:33.330Z,1.89
2018-02-13T00:31:04.431Z,1.78
2018-02-13T00:33:35.463Z,1.68
2018-02-13T00:36:06.502Z,1.62
2018-02-13T00:38:37.575Z,1.60
2018-02-13T00:41:08.656Z,1.58
2018-02-13T00:43:54.646Z,1.56
2018-02-13T00:46:25.667Z,1.50
2018-02-13T00:48:56.762Z,1.48
2018-02-13T00:51:27.813Z,1.45
2018-02-13T00:53:58.894Z,1.42
2018-02-13T00:56:29.951Z,1.39
2018-02-13T00:59:01.130Z,1.40
2018-02-13T01:01:32.142Z,1.39
2018-02-13T01:04:03.259Z,1.42
2018-02-13T01:06:34.301Z,1.44
2018-02-13T01:09:05.392Z,1.42
2018-02-13T01:11:36.454Z,1.40
2018-02-13T01:14:07.508Z,1.37
2018-02-13T01:16:38.619Z,1.37
2018-02-13T01:19:09.680Z,1.33
2018-02-13T01:21:40.759Z,1.30
2018-02-13T01:24:11.833Z,1.29
2018-02-13T01:26:42.981Z,1.26
2018-02-13T01:29:14.014Z,1.21
2018-02-13T01:31:45.062Z,1.21
2018-02-13T01:34:16.140Z,1.19
2018-02-13T01:36:47.184Z,1.17
2018-02-13T01:39:18.234Z,1.17
2018-02-13T01:41:49.241Z,1.15
2018-02-13T01:44:20.361Z,1.13
2018-02-13T01:46:51.366Z,1.12
2018-02-13T01:49:22.479Z,1.10
2018-02-13T01:51:53.570Z,1.11
2018-02-13T01:54:24.737Z,1.14
2018-02-13T01:56:55.849Z,1.15
2018-02-13T01:59:26.894Z,1.13
2018-02-13T02:01:57.984Z,1.09
2018-02-13T02:04:29.042Z,1.07
2018-02-13T02:07:01.507Z,1.04
2018-02-13T02:09:32.612Z,0.98
2018-02-13T02:12:03.637Z,0.98
2018-02-13T02:14:34.795Z,0.96
2018-02-13T02:17:05.835Z,0.93
2018-02-13T02:19:36.905Z,0.90
2018-02-13T02:22:07.993Z,0.90
2018-02-13T02:24:39.115Z,0.88
2018-02-13T02:27:10.213Z,0.84
2018-02-13T02:29:41.306Z,0.82
2018-02-13T02:32:13.226Z,0.79
2018-02-13T02:34:44.253Z,0.75
2018-02-13T02:37:15.327Z,0.72
2018-02-13T02:39:46.411Z,0.69
2018-02-13T02:42:17.474Z,0.66
2018-02-13T02:44:48.538Z,0.67
2018-02-13T02:47:19.620Z,0.70
2018-02-13T02:49:50.724Z,0.71
2018-02-13T02:52:21.827Z,0.72
2018-02-13T02:54:52.962Z,0.72
2018-02-13T02:57:24.038Z,0.74
2018-02-13T02:59:55.090Z,0.76
2018-02-13T03:02:26.153Z,0.76
2018-02-13T03:04:57.239Z,0.77
2018-02-13T03:07:28.291Z,0.79
2018-02-13T03:10:00.296Z,0.84
2018-02-13T03:12:31.374Z,0.92
2018-02-13T03:15:02.452Z,0.98
2018-02-13T03:17:33.493Z,1.01
2018-02-13T03:20:05.217Z,1.05
2018-02-13T03:22:36.263Z,1.12
2018-02-13T03:25:07.331Z,1.17
2018-02-13T03:27:38.362Z,1.23
2018-02-13T03:30:09.410Z,1.27
2018-02-13T03:32:40.509Z,1.26
2018-02-13T03:35:11.615Z,1.20
2018-02-13T03:37:42.659Z,1.13
2018-02-13T03:40:13.829Z,1.05
2018-02-13T03:42:44.888Z,0.97
2018-02-13T03:45:15.954Z,0.91
2018-02-13T03:47:46.997Z,0.88
2018-02-13T03:50:18.067Z,0.85
2018-02-13T03:52:49.137Z,0.85
2018-02-13T03:55:20.157Z,0.89
2018-02-13T03:57:51.223Z,0.98
2018-02-13T04:00:22.332Z,1.03
2018-02-13T04:02:53.413Z,1.07
2018-02-13T04:05:24.457Z,1.10
2018-02-13T04:07:55.504Z,1.14
2018-02-13T04:10:26.576Z,1.13
2018-02-13T04:12:57.606Z,1.14
2018-02-13T04:15:28.701Z,1.18
2018-02-13T04:17:59.745Z,1.17
2018-02-13T04:20:30.885Z,1.18
2018-02-13T04:23:01.923Z,1.20
2018-02-13T04:25:33.171Z,1.22
2018-02-13T04:28:04.212Z,1.23
2018-02-13T04:30:35.361Z,1.22
2018-02-13T04:33:06.395Z,1.23
2018-02-13T04:35:37.515Z,1.22
2018-02-13T04:38:08.557Z,1.21
2018-02-13T04:40:39.655Z,1.20
2018-02-13T04:43:10.666Z,1.24
2018-02-13T04:45:41.738Z,1.27
2018-02-13T04:48:12.822Z,1.28
2018-02-13T04:50:43.911Z,1.35
2018-02-13T04:53:14.964Z,1.42
2018-02-13T04:55:46.054Z,1.48
2018-02-13T04:58:17.125Z,1.55
2018-02-13T05:00:48.202Z,1.60
2018-02-13T05:03:19.308Z,1.63
2018-02-13T05:05:50.387Z,1.69
2018-02-13T05:08:21.457Z,1.72
2018-02-13T05:10:52.523Z,1.74
2018-02-13T05:13:23.663Z,1.73
2018-02-13T05:15:54.727Z,1.75
2018-02-13T05:18:25.848Z,1.79
2018-02-13T05:20:56.965Z,1.80
2018-02-13T05:23:28.162Z,1.78
2018-02-13T05:25:59.291Z,1.72
2018-02-13T05:28:30.378Z,1.67
2018-02-13T05:31:01.450Z,1.63
2018-02-13T05:33:32.561Z,1.54
2018-02-13T05:36:03.629Z,1.44
2018-02-13T05:38:34.751Z,1.39
2018-02-13T05:41:05.794Z,1.34
2018-02-13T05:43:36.879Z,1.30
2018-02-13T05:46:07.911Z,1.27
2018-02-13T05:48:38.991Z,1.26
2018-02-13T05:51:10.055Z,1.23
2018-02-13T05:53:41.119Z,1.15
2018-02-13T05:56:12.211Z,1.07
2018-02-13T05:58:43.241Z,0.99
2018-02-13T06:01:14.338Z,0.94
2018-02-13T06:03:45.483Z,0.90
2018-02-13T06:06:16.557Z,0.86
2018-02-13T06:08:47.618Z,0.83
2018-02-13T06:11:18.723Z,0.73
2018-02-13T06:13:49.794Z,0.68
2018-02-13T06:16:20.875Z,0.59
2018-02-13T06:18:52.690Z,0.51
2018-02-13T06:21:23.860Z,0.46
2018-02-13T06:23:56.128Z,0.43
2018-02-13T06:26:27.271Z,0.39
2018-02-13T06:28:58.362Z,0.38
2018-02-13T06:31:29.378Z,0.37
2018-02-13T06:34:00.503Z,0.38
2018-02-13T06:36:31.555Z,0.38
2018-02-13T06:39:02.733Z,0.40
2018-02-13T06:41:33.869Z,0.41
2018-02-13T06:44:04.994Z,0.43
2018-02-13T06:46:36.003Z,0.46
2018-02-13T06:49:07.137Z,0.52
2018-02-13T06:51:38.219Z,0.57
2018-02-13T06:54:09.295Z,0.63
2018-02-13T06:56:40.402Z,0.70
2018-02-13T06:59:11.514Z,0.75
2018-02-13T07:01:42.560Z,0.83
2018-02-13T07:04:13.646Z,0.91
2018-02-13T07:06:44.696Z,0.96
2018-02-13T07:09:15.813Z,0.97
2018-02-13T07:11:46.870Z,0.98
2018-02-13T07:14:18.017Z,1.06
2018-02-13T07:16:49.047Z,1.15
2018-02-13T07:19:20.132Z,1.22
2018-02-13T07:21:51.174Z,1.29
2018-02-13T07:24:22.445Z,1.37
2018-02-13T07:26:53.548Z,1.44
2018-02-13T07:29:24.601Z,1.55
2018-02-13T07:31:55.681Z,1.60
2018-02-13T07:34:26.744Z,1.67
2018-02-13T07:36:57.823Z,1.75
2018-02-13T07:39:29.528Z,1.76
2018-02-13T07:42:00.622Z,1.82
2018-02-13T07:44:31.702Z,1.89
2018-02-13T07:47:02.743Z,1.94
2018-02-13T07:49:33.876Z,1.96
2018-02-13T07:52:04.954Z,2.06
2018-02-13T07:54:36.024Z,2.11
2018-02-13T07:57:07.049Z,2.22
2018-02-13T07:59:38.131Z,2.40
2018-02-13T08:02:09.217Z,2.54
2018-02-13T08:04:40.260Z,2.68
2018-02-13T08:07:11.334Z,2.80
2018-02-13T08:09:42.440Z,2.89
2018-02-13T08:12:13.549Z,2.95
2018-02-13T08:14:44.633Z,2.99
2018-02-13T08:17:15.850Z,3.13
2018-02-13T08:19:46.905Z,3.26
2018-02-13T08:22:18.266Z,3.38
2018-02-13T08:24:49.388Z,3.49
2018-02-13T08:27:20.498Z,3.63
2018-02-13T08:29:51.546Z,3.77
2018-02-13T08:32:22.595Z,3.86
2018-02-13T08:34:53.707Z,3.93
2018-02-13T08:37:24.782Z,4.12
2018-02-13T08:39:55.896Z,5.75
2018-02-13T08:42:26.985Z,7.93
2018-02-13T08:44:58.054Z,10.85
2018-02-13T08:47:29.162Z,14.20
2018-02-13T08:50:00.232Z,16.91
2018-02-13T08:52:31.301Z,19.35
2018-02-13T08:55:02.403Z,21.10
2018-02-13T08:57:33.561Z,21.92
2018-02-13T09:00:04.607Z,22.82
2018-02-13T09:02:35.691Z,23.76
2018-02-13T09:05:06.750Z,24.14
2018-02-13T09:07:37.830Z,24.10
2018-02-13T09:10:08.905Z,24.93
2018-02-13T09:12:39.979Z,25.90
2018-02-13T09:15:11.038Z,26.49
2018-02-13T09:17:42.113Z,26.89
2018-02-13T09:20:13.159Z,27.12
2018-02-13T09:22:44.286Z,27.26
2018-02-13T09:25:15.442Z,27.42
2018-02-13T09:27:46.511Z,26.91
2018-02-13T09:30:17.652Z,26.82
2018-02-13T09:32:48.717Z,26.57
2018-02-13T09:35:19.826Z,26.94
2018-02-13T09:37:50.851Z,27.43
2018-02-13T09:40:22.003Z,27.52
2018-02-13T09:42:53.037Z,27.30
2018-02-13T09:45:24.131Z,27.78
2018-02-13T09:47:55.168Z,28.56
2018-02-13T09:50:26.324Z,28.78
2018-02-13T09:52:57.425Z,28.37
2018-02-13T09:55:28.508Z,28.11
2018-02-13T09:57:59.625Z,25.74
2018-02-13T10:00:30.783Z,23.43
2018-02-13T10:03:01.920Z,21.85
2018-02-13T10:05:33.550Z,21.80
2018-02-13T10:08:04.648Z,21.76
2018-02-13T10:10:35.686Z,21.72
2018-02-13T10:13:06.792Z,22.30
2018-02-13T10:15:37.869Z,23.41
2018-02-13T10:18:09.917Z,23.17
2018-02-13T10:20:40.992Z,22.69
2018-02-13T10:23:12.098Z,23.30
2018-02-13T10:25:43.222Z,23.60
2018-02-13T10:28:14.341Z,22.36
2018-02-13T10:30:45.405Z,21.63
2018-02-13T10:33:16.538Z,21.98
2018-02-13T10:35:47.640Z,22.34
2018-02-13T10:38:18.818Z,21.57
2018-02-13T10:40:49.877Z,20.54
2018-02-13T10:43:20.966Z,20.90
2018-02-13T10:45:52.016Z,21.69
2018-02-13T10:48:23.170Z,21.20
2018-02-13T10:50:54.260Z,20.88
2018-02-13T10:53:25.328Z,21.03
2018-02-13T10:55:56.368Z,20.78
2018-02-13T10:58:27.419Z,20.68
2018-02-13T11:01:04.570Z,19.69
2018-02-13T11:03:35.666Z,19.68
2018-02-13T11:06:06.729Z,20.19
2018-02-13T11:08:37.849Z,20.87
2018-02-13T11:11:08.949Z,21.54
2018-02-13T11:13:40.016Z,22.21
2018-02-13T11:16:11.136Z,22.27
2018-02-13T11:18:42.200Z,21.49
2018-02-13T11:21:13.337Z,20.43
2018-02-13T11:23:44.401Z,19.52
2018-02-13T11:26:15.497Z,17.90
2018-02-13T11:28:46.515Z,17.29
2018-02-13T11:31:25.344Z,17.53
2018-02-13T11:33:57.384Z,18.28
2018-02-13T11:36:29.104Z,18.89
2018-02-13T11:39:00.171Z,18.25
2018-02-13T11:41:31.213Z,16.59
2018-02-13T11:44:02.287Z,15.17
2018-02-13T11:46:33.390Z,13.75
2018-02-13T11:49:05.120Z,12.91
2018-02-13T11:51:36.190Z,12.62
2018-02-13T11:54:07.298Z,12.32
2018-02-13T11:56:38.346Z,12.20
2018-02-13T11:59:09.477Z,11.44
2018-02-13T12:01:40.527Z,10.81
2018-02-13T12:04:11.601Z,10.63
2018-02-13T12:06:42.667Z,10.56
2018-02-13T12:09:13.926Z,10.75
2018-02-13T12:11:44.965Z,10.89
2018-02-13T12:14:16.087Z,10.88
2018-02-13T12:16:47.141Z,11.34
2018-02-13T12:19:18.250Z,11.74
2018-02-13T12:21:49.321Z,11.47
2018-02-13T12:24:20.411Z,11.18
2018-02-13T12:26:51.504Z,10.81
2018-02-13T12:29:22.613Z,10.52
2018-02-13T12:31:53.680Z,10.13
2018-02-13T12:34:24.769Z,10.09
2018-02-13T12:36:55.846Z,10.11
2018-02-13T12:39:26.994Z,9.63
2018-02-13T12:41:58.121Z,9.03
2018-02-13T12:44:29.296Z,9.12
2018-02-13T12:47:00.385Z,8.92
2018-02-13T12:49:31.551Z,8.78
2018-02-13T12:52:02.676Z,8.56
2018-02-13T12:54:33.782Z,7.88
2018-02-13T12:57:04.890Z,8.07
2018-02-13T12:59:35.997Z,8.43
2018-02-13T13:02:07.089Z,7.90
2018-02-13T13:04:38.278Z,7.83
2018-02-13T13:07:09.327Z,7.93
2018-02-13T13:09:40.465Z,8.49
2018-02-13T13:12:11.546Z,9.47
2018-02-13T13:14:42.691Z,9.53
2018-02-13T13:17:13.792Z,9.13
2018-02-13T13:19:44.959Z,8.87
2018-02-13T13:22:16.012Z,8.39
2018-02-13T13:24:47.048Z,8.10
2018-02-13T13:27:18.061Z,8.35
2018-02-13T13:29:49.109Z,8.47
2018-02-13T13:32:20.126Z,8.48
2018-02-13T13:34:51.263Z,8.12
2018-02-13T13:37:22.308Z,7.83
2018-02-13T13:39:53.292Z,7.48
2018-02-13T13:42:24.315Z,7.14
2018-02-13T13:44:55.268Z,7.15
2018-02-13T13:47:26.271Z,7.13
2018-02-13T13:49:57.240Z,7.21
2018-02-13T13:52:28.247Z,7.34
2018-02-13T13:54:59.285Z,7.30
2018-02-13T13:57:30.282Z,7.21
2018-02-13T14:00:01.311Z,7.03
2018-02-13T14:02:32.388Z,6.76
2018-02-13T14:05:03.421Z,6.47
2018-02-13T14:07:34.525Z,6.36
2018-02-13T14:10:05.550Z,6.41
2018-02-13T14:12:36.577Z,6.47
2018-02-13T14:15:07.675Z,6.47
2018-02-13T14:17:38.686Z,6.34
2018-02-13T14:20:09.803Z,6.27
2018-02-13T14:22:40.801Z,6.09
2018-02-13T14:25:11.843Z,5.89
2018-02-13T14:27:42.841Z,5.93
2018-02-13T14:30:13.909Z,6.16
2018-02-13T14:32:44.859Z,6.60
2018-02-13T14:35:15.904Z,7.00
2018-02-13T14:37:46.898Z,7.30
2018-02-13T14:40:17.931Z,7.42
2018-02-13T14:42:48.964Z,7.38
2018-02-13T14:45:19.945Z,7.28
2018-02-13T14:47:50.970Z,7.08
2018-02-13T14:50:21.942Z,6.93
2018-02-13T14:52:52.956Z,6.84
2018-02-13T14:55:24.012Z,6.70
2018-02-13T14:57:54.976Z,6.40
2018-02-13T15:00:26.007Z,6.31
2018-02-13T15:02:56.994Z,6.42
2018-02-13T15:05:28.017Z,6.56
2018-02-13T15:07:59.037Z,6.59
2018-02-13T15:10:30.053Z,6.64
2018-02-13T15:13:01.125Z,6.60
2018-02-13T15:15:42.132Z,6.29
2018-02-13T15:18:17.258Z,6.01
2018-02-13T15:20:48.336Z,5.78
2018-02-13T15:23:19.383Z,5.60
2018-02-13T15:25:51.146Z,5.46
2018-02-13T15:28:22.669Z,5.20
2018-02-13T15:30:53.734Z,4.96
2018-02-13T15:33:24.857Z,4.82
2018-02-13T15:35:55.820Z,4.59
2018-02-13T15:38:26.942Z,4.47
2018-02-13T15:40:58.038Z,4.39
2018-02-13T15:43:29.076Z,4.36
2018-02-13T15:46:00.056Z,4.46
2018-02-13T15:48:31.055Z,4.58
2018-02-13T15:51:02.062Z,4.61
2018-02-13T15:53:33.080Z,4.49
2018-02-13T15:56:04.188Z,4.40
2018-02-13T15:58:36.084Z,4.33
2018-02-13T16:01:07.266Z,4.18
2018-02-13T16:03:38.291Z,4.11
2018-02-13T16:06:09.281Z,3.99
2018-02-13T16:08:40.303Z,3.95
2018-02-13T16:11:11.382Z,3.89
2018-02-13T16:13:42.370Z,3.71
2018-02-13T16:16:16.265Z,3.66
2018-02-13T16:18:47.284Z,3.57
2018-02-13T16:21:18.293Z,3.51
2018-02-13T16:23:49.300Z,3.37
2018-02-13T16:26:20.322Z,3.31
2018-02-13T16:28:51.268Z,3.26
2018-02-13T16:31:22.277Z,3.23
2018-02-13T16:33:53.272Z,3.17
2018-02-13T16:36:24.318Z,3.11
2018-02-13T16:38:55.314Z,2.97
2018-02-13T16:41:26.334Z,2.94
2018-02-13T16:43:57.395Z,2.88
2018-02-13T16:46:28.392Z,2.86
2018-02-13T16:48:59.415Z,2.79
2018-02-13T16:51:30.417Z,2.74
2018-02-13T16:54:01.449Z,2.70
2018-02-13T16:56:32.439Z,2.67
2018-02-13T16:59:03.433Z,2.65
2018-02-13T17:01:34.523Z,2.57
2018-02-13T17:04:05.550Z,2.52
2018-02-13T17:06:36.678Z,2.50
2018-02-13T17:09:07.981Z,2.43
2018-02-13T17:11:39.447Z,2.42
2018-02-13T17:14:10.453Z,2.39
2018-02-13T17:16:41.490Z,2.40
2018-02-13T17:19:12.491Z,2.37
2018-02-13T17:21:43.522Z,2.34
2018-02-13T17:24:14.565Z,2.32
2018-02-13T17:26:45.598Z,2.31
2018-02-13T17:29:16.573Z,2.31
2018-02-13T17:31:47.575Z,2.24
2018-02-13T17:34:18.631Z,2.21
2018-02-13T17:36:49.740Z,2.22
2018-02-13T17:39:20.748Z,2.19
2018-02-13T17:41:51.761Z,2.16
2018-02-13T17:44:22.731Z,2.15
2018-02-13T17:46:53.723Z,2.09
2018-02-13T17:49:24.724Z,2.04
2018-02-13T17:51:55.705Z,2.05
2018-02-13T17:54:26.718Z,2.05
2018-02-13T17:56:57.733Z,2.04
2018-02-13T17:59:28.724Z,2.04
2018-02-13T18:01:59.699Z,2.03
2018-02-13T18:04:30.670Z,2.00
2018-02-13T18:07:01.670Z,1.99
2018-02-13T18:09:32.700Z,1.97
2018-02-13T18:12:03.737Z,1.95
2018-02-13T18:14:34.782Z,1.94
2018-02-13T18:17:05.762Z,1.92
2018-02-13T18:19:36.764Z,1.89
2018-02-13T18:22:07.870Z,1.89
2018-02-13T18:24:38.901Z,1.90
2018-02-13T18:27:09.939Z,1.87
2018-02-13T18:29:40.960Z,1.84
2018-02-13T18:32:11.973Z,1.81
2018-02-13T18:34:42.967Z,1.78
2018-02-13T18:37:14.193Z,1.77
2018-02-13T18:39:45.263Z,1.78
2018-02-13T18:42:16.249Z,1.73
2018-02-13T18:44:47.284Z,1.73
2018-02-13T18:47:18.330Z,1.66
2018-02-13T18:49:49.314Z,1.63
2018-02-13T18:54:51.319Z,1.51
2018-02-13T18:57:22.296Z,1.45
2018-02-13T19:02:30.989Z,1.35
2018-02-13T19:05:02.016Z,1.33
2018-02-13T19:07:33.048Z,1.29
2018-02-13T19:10:04.267Z,1.27
2018-02-13T19:12:35.439Z,1.28
2018-02-13T19:15:06.676Z,1.22
2018-02-13T19:17:37.705Z,1.15
2018-02-13T19:20:08.756Z,1.12
2018-02-13T19:22:39.759Z,1.13
2018-02-13T19:25:10.775Z,1.08
2018-02-13T19:27:41.743Z,1.11
2018-02-13T19:30:12.865Z,1.11
2018-02-13T19:32:43.830Z,1.05
2018-02-13T19:35:14.809Z,1.04
2018-02-13T19:37:45.799Z,0.99
2018-02-13T19:40:16.808Z,0.98
2018-02-13T19:42:47.853Z,0.98
2018-02-13T19:45:19.044Z,0.99
2018-02-13T19:47:50.081Z,0.96
2018-02-13T19:50:21.149Z,0.92
2018-02-13T19:52:52.148Z,0.91
2018-02-13T19:55:23.280Z,0.87
2018-02-13T19:57:54.327Z,0.87
2018-02-13T20:00:25.505Z,0.85
2018-02-13T20:02:56.509Z,0.84
2018-02-13T20:05:27.515Z,0.82
2018-02-13T20:07:58.512Z,0.80
2018-02-13T20:10:29.498Z,0.78
2018-02-13T20:13:00.490Z,0.80
2018-02-13T20:15:31.493Z,0.79
2018-02-13T20:18:02.486Z,0.77
2018-02-13T20:20:33.498Z,0.77
2018-02-13T20:23:04.467Z,0.75
2018-02-13T20:25:35.498Z,0.71
2018-02-13T20:28:06.523Z,0.69
2018-02-13T20:30:37.499Z,0.66
2018-02-13T20:33:08.602Z,0.66
2018-02-13T20:35:39.655Z,0.64
2018-02-13T20:38:10.644Z,0.63
2018-02-13T20:40:41.606Z,0.61
2018-02-13T20:43:12.691Z,0.60
2018-02-13T20:45:43.710Z,0.60
2018-02-13T20:48:14.797Z,0.57
2018-02-13T20:50:45.847Z,0.56
2018-02-13T20:53:16.860Z,0.57
2018-02-13T20:55:47.880Z,0.54
2018-02-13T20:58:18.829Z,0.51
2018-02-13T21:00:49.875Z,0.47
2018-02-13T21:03:20.858Z,0.42
2018-02-13T21:05:51.869Z,0.40
2018-02-13T21:08:22.906Z,0.37
2018-02-13T21:10:53.871Z,0.35
2018-02-13T21:13:24.919Z,0.33
2018-02-13T21:15:55.960Z,0.31
2018-02-13T21:18:26.987Z,0.29
2018-02-13T21:20:57.977Z,0.27
2018-02-13T21:23:29.009Z,0.26
2018-02-13T21:26:00.021Z,0.25
2018-02-13T21:28:31.102Z,0.23
2018-02-13T21:31:02.124Z,0.21
2018-02-13T21:33:33.152Z,0.22
2018-02-13T21:36:04.135Z,0.22
2018-02-13T21:38:35.152Z,0.22
2018-02-13T21:41:06.193Z,0.20
2018-02-13T21:43:37.208Z,0.19
2018-02-13T21:46:08.168Z,0.19
2018-02-13T21:48:39.203Z,0.18
2018-02-13T21:51:10.159Z,0.16
2018-02-13T21:53:41.197Z,0.12
2018-02-13T21:56:12.159Z,0.10
2018-02-13T21:58:43.204Z,0.08
2018-02-13T22:01:14.225Z,0.07
2018-02-13T22:03:45.262Z,0.06
2018-02-13T22:06:16.281Z,0.03
2018-02-13T22:08:47.243Z,0.00
2018-02-13T22:11:18.265Z,-0.03
2018-02-13T22:13:49.224Z,-0.03
2018-02-13T22:16:20.288Z,-0.04
2018-02-13T22:18:51.281Z,-0.05
2018-02-13T22:21:22.304Z,-0.09
2018-02-13T22:23:53.341Z,-0.09
2018-02-13T22:26:24.310Z,-0.09
2018-02-13T22:29:02.171Z,-0.12
2018-02-13T22:31:33.132Z,-0.13
2018-02-13T22:34:04.135Z,-0.13
2018-02-13T22:36:42.323Z,-0.15
2018-02-13T22:39:13.346Z,-0.17
2018-02-13T22:41:44.318Z,-0.20
2018-02-13T22:44:22.401Z,-0.22
2018-02-13T22:46:53.346Z,-0.24
2018-02-13T22:49:24.405Z,-0.26
2018-02-13T22:51:55.405Z,-0.30
2018-02-13T22:54:26.445Z,-0.30
2018-02-13T22:56:57.448Z,-0.33
2018-02-13T22:59:28.476Z,-0.33
2018-02-13T23:01:59.437Z,-0.33
2018-02-13T23:04:30.528Z,-0.35
2018-02-13T23:07:01.518Z,-0.37
2018-02-13T23:09:32.523Z,-0.40
2018-02-13T23:12:03.497Z,-0.39
2018-02-13T23:14:34.512Z,-0.39
2018-02-13T23:17:05.487Z,-0.42
2018-02-13T23:19:36.892Z,-0.42
2018-02-13T23:22:07.872Z,-0.42
2018-02-13T23:24:38.888Z,-0.41
2018-02-13T23:27:09.922Z,-0.44
2018-02-13T23:29:40.900Z,-0.50
2018-02-13T23:32:11.939Z,-0.49
2018-02-13T23:34:42.897Z,-0.50
2018-02-13T23:37:14.085Z,-0.51
2018-02-13T23:39:45.106Z,-0.51
2018-02-13T23:42:16.087Z,-0.49
2018-02-13T23:44:47.123Z,-0.53
2018-02-13T23:47:18.078Z,-0.54
2018-02-13T23:49:49.108Z,-0.56
2018-02-13T23:52:20.096Z,-0.61
2018-02-13T23:54:51.149Z,-0.59
2018-02-13T23:57:22.104Z,-0.59
2018-02-13T23:59:53.119Z,-0.57
